createdAt,value
2017-05-21T00:00:19.664Z,13.20
2017-05-21T00:02:48.852Z,13.10
2017-05-21T00:05:18.052Z,13.10
2017-05-21T00:07:47.454Z,13.00
2017-05-21T00:10:16.639Z,13.00
2017-05-21T00:12:45.837Z,13.00
2017-05-21T00:15:14.858Z,13.00
2017-05-21T00:17:44.071Z,13.00
2017-05-21T00:20:13.333Z,13.00
2017-05-21T00:22:42.558Z,13.00
2017-05-21T00:25:11.741Z,13.00
2017-05-21T00:27:40.938Z,12.90
2017-05-21T00:30:10.219Z,12.80
2017-05-21T00:32:39.409Z,12.80
2017-05-21T00:35:08.600Z,12.80
2017-05-21T00:37:37.811Z,12.70
2017-05-21T00:40:06.990Z,12.70
2017-05-21T00:42:36.172Z,12.70
2017-05-21T00:45:05.395Z,12.70
2017-05-21T00:47:34.587Z,12.70
2017-05-21T00:50:03.833Z,12.60
2017-05-21T00:52:33.048Z,12.50
2017-05-21T00:55:02.260Z,12.50
2017-05-21T00:57:31.500Z,12.40
2017-05-21T01:00:00.700Z,12.40
2017-05-21T01:02:29.881Z,12.50
2017-05-21T01:04:59.074Z,12.50
2017-05-21T01:07:28.394Z,12.50
2017-05-21T01:09:57.580Z,12.40
2017-05-21T01:12:26.769Z,12.30
2017-05-21T01:14:55.998Z,12.20
2017-05-21T01:17:25.902Z,12.10
2017-05-21T01:19:55.103Z,12.10
2017-05-21T01:22:24.305Z,12.10
2017-05-21T01:24:53.512Z,12.20
2017-05-21T01:27:22.724Z,12.10
2017-05-21T01:29:51.916Z,12.20
2017-05-21T01:32:21.113Z,12.20
2017-05-21T01:34:50.328Z,12.10
2017-05-21T01:37:19.522Z,12.10
2017-05-21T01:39:48.738Z,12.10
2017-05-21T01:42:17.961Z,12.10
2017-05-21T01:44:46.789Z,12.10
2017-05-21T01:47:15.627Z,12.10
2017-05-21T01:49:44.837Z,12.10
2017-05-21T01:52:14.072Z,12.00
2017-05-21T01:54:43.261Z,12.00
2017-05-21T01:57:12.511Z,12.00
2017-05-21T01:59:41.687Z,12.00
2017-05-21T02:02:10.920Z,12.00
2017-05-21T02:04:40.126Z,11.90
2017-05-21T02:07:09.361Z,11.80
2017-05-21T02:09:39.655Z,11.70
2017-05-21T02:12:08.887Z,11.70
2017-05-21T02:14:38.123Z,11.70
2017-05-21T02:17:07.317Z,11.60
2017-05-21T02:19:36.533Z,11.60
2017-05-21T02:22:05.712Z,11.70
2017-05-21T02:24:34.896Z,11.70
2017-05-21T02:27:04.134Z,11.70
2017-05-21T02:29:33.329Z,11.70
2017-05-21T02:32:02.512Z,11.70
2017-05-21T02:34:31.735Z,11.70
2017-05-21T02:37:00.979Z,11.60
2017-05-21T02:39:30.181Z,11.60
2017-05-21T02:42:00.088Z,11.60
2017-05-21T02:44:29.281Z,11.60
2017-05-21T02:46:58.480Z,11.60
2017-05-21T02:49:27.699Z,11.60
2017-05-21T02:51:56.902Z,11.60
2017-05-21T02:54:26.105Z,11.50
2017-05-21T02:56:55.325Z,11.50
2017-05-21T02:59:24.505Z,11.50
2017-05-21T03:01:53.700Z,11.50
2017-05-21T03:04:22.919Z,11.50
2017-05-21T03:06:52.120Z,11.40
2017-05-21T03:09:20.777Z,11.40
2017-05-21T03:11:49.996Z,11.40
2017-05-21T03:14:19.869Z,11.30
2017-05-21T03:16:49.065Z,11.30
2017-05-21T03:19:18.275Z,11.30
2017-05-21T03:21:47.453Z,11.40
2017-05-21T03:24:16.672Z,11.40
2017-05-21T03:26:45.878Z,11.30
2017-05-21T03:29:15.056Z,11.30
2017-05-21T03:31:44.290Z,11.30
2017-05-21T03:34:13.469Z,11.30
2017-05-21T03:36:43.514Z,11.40
2017-05-21T03:39:12.709Z,11.30
2017-05-21T03:41:41.901Z,11.30
2017-05-21T03:44:11.114Z,11.20
2017-05-21T03:46:40.313Z,11.20
2017-05-21T03:49:09.556Z,11.10
2017-05-21T03:51:38.852Z,11.00
2017-05-21T03:54:08.044Z,10.90
2017-05-21T03:56:37.224Z,11.00
2017-05-21T03:59:06.433Z,11.00
2017-05-21T04:01:35.625Z,11.00
2017-05-21T04:04:04.823Z,11.10
2017-05-21T04:06:34.046Z,11.20
2017-05-21T04:09:02.887Z,11.20
2017-05-21T04:11:32.083Z,11.20
2017-05-21T04:14:01.283Z,11.10
2017-05-21T04:16:30.485Z,11.10
2017-05-21T04:18:59.672Z,11.20
2017-05-21T04:21:28.892Z,11.20
2017-05-21T04:23:58.113Z,11.20
2017-05-21T04:26:27.291Z,11.20
2017-05-21T04:28:56.518Z,11.20
2017-05-21T04:31:25.701Z,11.30
2017-05-21T04:33:54.898Z,11.30
2017-05-21T04:36:24.125Z,11.30
2017-05-21T04:38:53.324Z,11.20
2017-05-21T04:41:22.529Z,11.20
2017-05-21T04:43:51.740Z,11.20
2017-05-21T04:46:20.928Z,11.20
2017-05-21T04:48:50.188Z,11.20
2017-05-21T04:51:19.409Z,11.20
2017-05-21T04:53:48.655Z,11.30
2017-05-21T04:56:17.840Z,11.30
2017-05-21T04:58:47.056Z,11.30
2017-05-21T05:01:16.856Z,11.40
2017-05-21T05:03:46.045Z,11.50
2017-05-21T05:06:15.285Z,11.50
2017-05-21T05:08:44.473Z,11.50
2017-05-21T05:11:13.673Z,11.60
2017-05-21T05:13:42.893Z,11.60
2017-05-21T05:16:12.173Z,11.60
2017-05-21T05:18:41.364Z,11.60
2017-05-21T05:21:10.568Z,11.70
2017-05-21T05:23:39.794Z,11.70
2017-05-21T05:26:08.988Z,11.80
2017-05-21T05:28:38.208Z,11.80
2017-05-21T05:31:07.406Z,11.80
2017-05-21T05:33:36.601Z,11.90
2017-05-21T05:36:05.833Z,11.90
2017-05-21T05:38:35.029Z,11.90
2017-05-21T05:41:04.229Z,11.90
2017-05-21T05:43:33.446Z,12.00
2017-05-21T05:46:03.869Z,12.00
2017-05-21T05:48:33.081Z,12.00
2017-05-21T05:51:02.260Z,12.00
2017-05-21T05:53:31.491Z,12.10
2017-05-21T05:56:00.712Z,12.20
2017-05-21T05:58:29.914Z,12.30
2017-05-21T06:00:59.111Z,12.30
2017-05-21T06:03:28.366Z,12.40
2017-05-21T06:05:57.544Z,12.50
2017-05-21T06:08:26.741Z,12.60
2017-05-21T06:10:55.969Z,12.70
2017-05-21T06:13:25.156Z,12.70
2017-05-21T06:15:54.373Z,12.70
2017-05-21T06:18:23.606Z,12.70
2017-05-21T06:20:52.811Z,12.80
2017-05-21T06:23:22.010Z,12.80
2017-05-21T06:25:51.214Z,12.90
2017-05-21T06:28:20.429Z,12.90
2017-05-21T06:30:49.629Z,13.00
2017-05-21T06:33:18.838Z,13.00
2017-05-21T06:35:48.024Z,13.00
2017-05-21T06:38:17.297Z,13.10
2017-05-21T06:40:46.502Z,13.10
2017-05-21T06:43:15.688Z,13.20
2017-05-21T06:45:44.876Z,13.30
2017-05-21T06:48:14.117Z,13.40
2017-05-21T06:50:43.346Z,13.50
2017-05-21T06:53:12.525Z,13.60
2017-05-21T06:55:41.737Z,13.60
2017-05-21T06:58:10.933Z,13.60
2017-05-21T07:00:40.120Z,13.60
2017-05-21T07:03:09.337Z,13.70
2017-05-21T07:05:38.568Z,13.70
2017-05-21T07:08:07.757Z,13.80
2017-05-21T07:10:36.989Z,13.90
2017-05-21T07:13:06.184Z,14.00
2017-05-21T07:15:35.394Z,14.10
2017-05-21T07:18:04.605Z,14.10
2017-05-21T07:20:33.836Z,14.20
2017-05-21T07:23:03.048Z,14.20
2017-05-21T07:25:32.279Z,14.40
2017-05-21T07:28:01.569Z,14.50
2017-05-21T07:30:30.781Z,14.50
2017-05-21T07:32:59.986Z,14.60
2017-05-21T07:35:29.183Z,14.70
2017-05-21T07:37:58.039Z,14.90
2017-05-21T07:40:27.241Z,15.00
2017-05-21T07:42:56.474Z,15.20
2017-05-21T07:45:25.654Z,15.30
2017-05-21T07:47:54.879Z,15.50
2017-05-21T07:50:24.092Z,15.60
2017-05-21T07:52:53.959Z,15.70
2017-05-21T07:55:23.177Z,15.80
2017-05-21T07:57:52.745Z,15.90
2017-05-21T08:00:21.945Z,16.10
2017-05-21T08:02:51.232Z,16.20
2017-05-21T08:05:20.432Z,16.30
2017-05-21T08:07:49.742Z,16.40
2017-05-21T08:10:18.934Z,16.60
2017-05-21T08:12:48.130Z,16.80
2017-05-21T08:15:17.348Z,16.90
2017-05-21T08:17:46.608Z,17.10
2017-05-21T08:20:15.797Z,17.20
2017-05-21T08:22:45.012Z,17.30
2017-05-21T08:25:14.218Z,17.30
2017-05-21T08:27:43.403Z,17.40
2017-05-21T08:30:12.621Z,17.50
2017-05-21T08:32:41.881Z,17.70
2017-05-21T08:35:11.060Z,17.90
2017-05-21T08:37:40.281Z,18.10
2017-05-21T08:40:09.506Z,18.30
2017-05-21T08:42:38.745Z,18.50
2017-05-21T08:45:07.966Z,18.80
2017-05-21T08:47:37.161Z,19.00
2017-05-21T08:50:06.365Z,19.00
2017-05-21T08:52:36.393Z,19.20
2017-05-21T08:55:06.723Z,19.40
2017-05-21T08:57:36.760Z,19.60
2017-05-21T09:00:06.859Z,19.90
2017-05-21T09:02:37.063Z,20.10
2017-05-21T09:05:07.318Z,20.20
2017-05-21T09:07:38.297Z,20.30
2017-05-21T09:10:12.147Z,20.30
2017-05-21T09:12:42.399Z,20.60
2017-05-21T09:15:12.460Z,20.80
2017-05-21T09:17:42.526Z,21.10
2017-05-21T09:20:12.053Z,20.80
2017-05-21T09:22:41.235Z,21.10
2017-05-21T09:25:10.687Z,21.40
2017-05-21T09:27:39.893Z,21.70
2017-05-21T09:30:09.137Z,22.50
2017-05-21T09:32:38.373Z,23.10
2017-05-21T09:35:07.561Z,23.30
2017-05-21T09:37:36.757Z,23.60
2017-05-21T09:40:05.987Z,23.90
2017-05-21T09:42:35.172Z,24.30
2017-05-21T09:45:04.362Z,24.60
2017-05-21T09:47:33.594Z,24.90
2017-05-21T09:50:02.778Z,25.10
2017-05-21T09:52:31.967Z,25.30
2017-05-21T09:55:01.185Z,25.30
2017-05-21T09:57:30.382Z,25.40
2017-05-21T09:59:59.561Z,25.10
2017-05-21T10:02:28.781Z,25.00
2017-05-21T10:04:57.986Z,24.30
2017-05-21T10:07:27.173Z,23.70
2017-05-21T10:09:56.412Z,23.30
2017-05-21T10:12:25.616Z,23.30
2017-05-21T10:14:54.809Z,23.50
2017-05-21T10:17:24.055Z,23.60
2017-05-21T10:19:53.246Z,23.70
2017-05-21T10:22:22.963Z,23.70
2017-05-21T10:24:52.330Z,23.70
2017-05-21T10:27:22.141Z,23.70
2017-05-21T10:29:51.455Z,23.60
2017-05-21T10:32:20.783Z,23.50
2017-05-21T10:34:50.288Z,23.40
2017-05-21T10:37:19.500Z,23.20
2017-05-21T10:39:48.720Z,23.10
2017-05-21T10:42:17.968Z,23.20
2017-05-21T10:44:47.228Z,23.30
2017-05-21T10:47:16.641Z,23.30
2017-05-21T10:49:47.072Z,23.30
2017-05-21T10:52:16.797Z,23.40
2017-05-21T10:54:46.043Z,23.50
2017-05-21T10:57:15.303Z,23.60
2017-05-21T10:59:44.720Z,23.40
2017-05-21T11:02:14.095Z,23.30
2017-05-21T11:04:43.545Z,23.70
2017-05-21T11:07:12.818Z,23.50
2017-05-21T11:09:42.080Z,23.10
2017-05-21T11:12:11.458Z,23.00
2017-05-21T11:14:40.780Z,22.60
2017-05-21T11:17:10.196Z,22.60
2017-05-21T11:19:39.722Z,22.70
2017-05-21T11:22:08.924Z,22.60
2017-05-21T11:24:38.676Z,22.40
2017-05-21T11:27:07.993Z,22.30
2017-05-21T11:29:37.185Z,22.20
2017-05-21T11:32:06.405Z,22.10
2017-05-21T11:34:36.282Z,22.40
2017-05-21T11:37:06.322Z,22.80
2017-05-21T11:39:35.649Z,23.10
2017-05-21T11:42:06.441Z,23.10
2017-05-21T11:44:35.644Z,23.00
2017-05-21T11:47:04.835Z,22.90
2017-05-21T11:49:34.090Z,22.80
2017-05-21T11:52:03.260Z,22.70
2017-05-21T11:54:32.444Z,22.80
2017-05-21T11:57:01.662Z,23.10
2017-05-21T11:59:30.864Z,23.50
2017-05-21T12:02:00.069Z,23.40
2017-05-21T12:04:29.281Z,23.50
2017-05-21T12:06:58.469Z,23.50
2017-05-21T12:09:27.669Z,23.40
2017-05-21T12:11:56.916Z,23.30
2017-05-21T12:14:26.090Z,23.10
2017-05-21T12:16:55.294Z,23.10
2017-05-21T12:19:24.496Z,23.30
2017-05-21T12:21:53.680Z,23.30
2017-05-21T12:24:22.884Z,23.30
2017-05-21T12:26:52.091Z,23.50
2017-05-21T12:29:21.286Z,23.60
2017-05-21T12:31:50.545Z,23.70
2017-05-21T12:34:19.438Z,23.80
2017-05-21T12:36:48.619Z,23.80
2017-05-21T12:39:17.824Z,23.80
2017-05-21T12:41:47.052Z,23.70
2017-05-21T12:44:16.245Z,23.80
2017-05-21T12:46:45.454Z,23.80
2017-05-21T12:49:14.676Z,23.70
2017-05-21T12:51:43.956Z,23.60
2017-05-21T12:54:13.150Z,23.70
2017-05-21T12:56:42.393Z,23.80
2017-05-21T12:59:11.577Z,23.80
2017-05-21T13:01:40.769Z,23.70
2017-05-21T13:04:09.981Z,23.90
2017-05-21T13:06:39.185Z,24.00
2017-05-21T13:09:08.378Z,23.90
2017-05-21T13:11:37.593Z,23.80
2017-05-21T13:14:06.843Z,23.80
2017-05-21T13:16:36.046Z,23.80
2017-05-21T13:19:05.264Z,23.90
2017-05-21T13:21:34.477Z,24.00
2017-05-21T13:24:03.701Z,24.10
2017-05-21T13:26:32.903Z,23.70
2017-05-21T13:29:02.089Z,23.40
2017-05-21T13:31:31.281Z,23.20
2017-05-21T13:34:00.513Z,23.20
2017-05-21T13:36:29.697Z,23.20
2017-05-21T13:38:58.876Z,23.30
2017-05-21T13:41:28.150Z,23.20
2017-05-21T13:43:57.336Z,23.20
2017-05-21T13:46:26.526Z,23.10
2017-05-21T13:48:55.396Z,23.20
2017-05-21T13:51:24.601Z,23.40
2017-05-21T13:53:53.812Z,23.50
2017-05-21T13:56:23.030Z,23.50
2017-05-21T13:58:52.225Z,23.50
2017-05-21T14:01:21.420Z,23.30
2017-05-21T14:03:50.675Z,23.50
2017-05-21T14:06:19.873Z,23.50
2017-05-21T14:08:49.064Z,23.50
2017-05-21T14:11:18.274Z,23.60
2017-05-21T14:13:47.476Z,23.70
2017-05-21T14:16:16.664Z,23.60
2017-05-21T14:18:45.895Z,23.50
2017-05-21T14:21:15.089Z,23.40
2017-05-21T14:23:44.274Z,23.40
2017-05-21T14:26:13.496Z,23.20
2017-05-21T14:28:42.685Z,23.10
2017-05-21T14:31:12.049Z,23.20
2017-05-21T14:33:41.272Z,23.10
2017-05-21T14:36:10.480Z,23.10
2017-05-21T14:38:39.674Z,23.00
2017-05-21T14:41:08.899Z,22.80
2017-05-21T14:43:38.082Z,22.80
2017-05-21T14:46:07.281Z,22.80
2017-05-21T14:48:36.505Z,22.60
2017-05-21T14:51:05.693Z,22.50
2017-05-21T14:53:34.885Z,22.60
2017-05-21T14:56:04.097Z,22.60
2017-05-21T14:58:33.295Z,22.70
2017-05-21T15:01:02.493Z,22.70
2017-05-21T15:03:31.660Z,22.60
2017-05-21T15:06:00.856Z,22.70
2017-05-21T15:08:30.040Z,22.80
2017-05-21T15:10:59.251Z,22.90
2017-05-21T15:13:28.443Z,23.00
2017-05-21T15:15:57.646Z,22.80
2017-05-21T15:18:26.503Z,22.80
2017-05-21T15:20:55.705Z,22.90
2017-05-21T15:23:24.889Z,23.10
2017-05-21T15:25:54.124Z,23.10
2017-05-21T15:28:23.301Z,23.10
2017-05-21T15:30:52.487Z,22.90
2017-05-21T15:33:22.381Z,22.90
2017-05-21T15:35:51.591Z,22.80
2017-05-21T15:38:20.784Z,22.70
2017-05-21T15:40:50.007Z,22.60
2017-05-21T15:43:19.181Z,22.70
2017-05-21T15:45:48.359Z,22.90
2017-05-21T15:48:17.596Z,22.90
2017-05-21T15:50:46.793Z,23.00
2017-05-21T15:53:16.003Z,23.00
2017-05-21T15:55:45.237Z,22.90
2017-05-21T15:58:14.429Z,22.90
2017-05-21T16:00:43.608Z,22.90
2017-05-21T16:03:12.816Z,22.80
2017-05-21T16:05:42.008Z,22.80
2017-05-21T16:08:11.232Z,22.70
2017-05-21T16:10:41.141Z,22.70
2017-05-21T16:13:10.330Z,22.80
2017-05-21T16:15:39.513Z,22.80
2017-05-21T16:18:08.729Z,22.80
2017-05-21T16:20:37.929Z,22.80
2017-05-21T16:23:07.129Z,22.80
2017-05-21T16:25:36.328Z,22.80
2017-05-21T16:28:05.519Z,22.70
2017-05-21T16:30:34.708Z,22.70
2017-05-21T16:33:03.930Z,22.80
2017-05-21T16:35:33.112Z,22.80
2017-05-21T16:38:02.294Z,22.80
2017-05-21T16:40:31.501Z,22.70
2017-05-21T16:43:00.723Z,22.70
2017-05-21T16:45:29.910Z,22.70
2017-05-21T16:47:59.126Z,22.60
2017-05-21T16:50:28.320Z,22.60
2017-05-21T16:52:57.508Z,22.60
2017-05-21T16:55:26.740Z,22.60
2017-05-21T16:57:55.922Z,22.60
2017-05-21T17:00:25.113Z,22.60
2017-05-21T17:02:54.341Z,22.60
2017-05-21T17:05:23.536Z,22.40
2017-05-21T17:07:52.743Z,22.40
2017-05-21T17:10:22.126Z,22.40
2017-05-21T17:12:51.325Z,22.30
2017-05-21T17:15:20.867Z,22.30
2017-05-21T17:17:50.197Z,22.20
2017-05-21T17:20:19.387Z,22.20
2017-05-21T17:22:48.588Z,22.10
2017-05-21T17:25:18.832Z,22.10
2017-05-21T17:27:48.041Z,22.00
2017-05-21T17:30:17.234Z,21.90
2017-05-21T17:32:46.460Z,21.80
2017-05-21T17:35:16.344Z,21.90
2017-05-21T17:37:45.554Z,21.80
2017-05-21T17:40:14.748Z,21.80
2017-05-21T17:42:44.315Z,21.80
2017-05-21T17:45:13.597Z,21.90
2017-05-21T17:47:42.802Z,21.90
2017-05-21T17:50:12.363Z,21.90
2017-05-21T17:52:41.577Z,21.90
2017-05-21T17:55:10.851Z,21.80
2017-05-21T17:57:39.856Z,21.70
2017-05-21T18:00:09.108Z,21.70
2017-05-21T18:02:38.357Z,21.70
2017-05-21T18:05:07.536Z,21.70
2017-05-21T18:07:36.782Z,21.70
2017-05-21T18:10:05.973Z,21.70
2017-05-21T18:12:35.154Z,21.70
2017-05-21T18:15:05.069Z,21.60
2017-05-21T18:17:34.261Z,21.60
2017-05-21T18:20:03.453Z,21.60
2017-05-21T18:22:32.676Z,21.60
2017-05-21T18:25:01.879Z,21.50
2017-05-21T18:27:31.061Z,21.50
2017-05-21T18:30:00.292Z,21.60
2017-05-21T18:32:29.512Z,21.60
2017-05-21T18:34:58.706Z,21.60
2017-05-21T18:37:27.950Z,21.50
2017-05-21T18:39:57.155Z,21.40
2017-05-21T18:42:26.350Z,21.40
2017-05-21T18:44:55.573Z,21.60
2017-05-21T18:47:24.777Z,21.70
2017-05-21T18:49:53.965Z,21.60
2017-05-21T18:52:23.189Z,21.50
2017-05-21T18:54:52.399Z,21.50
2017-05-21T18:57:21.570Z,21.50
2017-05-21T18:59:50.784Z,21.40
2017-05-21T19:02:20.020Z,21.30
2017-05-21T19:04:49.258Z,21.20
2017-05-21T19:07:18.536Z,21.20
2017-05-21T19:09:48.807Z,21.20
2017-05-21T19:12:18.115Z,21.20
2017-05-21T19:14:48.315Z,21.20
2017-05-21T19:17:17.615Z,21.20
2017-05-21T19:19:46.850Z,21.30
2017-05-21T19:22:16.139Z,21.20
2017-05-21T19:24:45.398Z,21.20
2017-05-21T19:27:15.317Z,21.00
2017-05-21T19:29:44.645Z,20.90
2017-05-21T19:32:13.933Z,20.80
2017-05-21T19:34:43.174Z,20.70
2017-05-21T19:37:12.364Z,20.70
2017-05-21T19:39:41.549Z,20.60
2017-05-21T19:42:11.329Z,20.60
2017-05-21T19:44:40.594Z,20.50
2017-05-21T19:47:09.809Z,20.50
2017-05-21T19:49:39.037Z,20.50
2017-05-21T19:52:08.229Z,20.40
2017-05-21T19:54:37.431Z,20.30
2017-05-21T19:57:06.873Z,20.20
2017-05-21T19:59:36.108Z,20.10
2017-05-21T20:02:05.316Z,20.00
2017-05-21T20:04:34.558Z,19.90
2017-05-21T20:07:03.760Z,19.90
2017-05-21T20:09:32.952Z,19.80
2017-05-21T20:12:02.677Z,19.70
2017-05-21T20:14:31.862Z,19.60
2017-05-21T20:17:01.049Z,19.50
2017-05-21T20:19:30.269Z,19.50
2017-05-21T20:21:59.473Z,19.40
2017-05-21T20:24:28.728Z,19.50
2017-05-21T20:26:57.977Z,19.40
2017-05-21T20:29:27.182Z,19.30
2017-05-21T20:31:56.414Z,19.30
2017-05-21T20:34:25.613Z,19.30
2017-05-21T20:36:54.815Z,19.20
2017-05-21T20:39:24.058Z,19.20
2017-05-21T20:41:53.970Z,19.20
2017-05-21T20:44:23.170Z,19.10
2017-05-21T20:46:52.457Z,19.10
2017-05-21T20:49:21.745Z,19.00
2017-05-21T20:51:50.892Z,19.00
2017-05-21T20:54:20.096Z,19.00
2017-05-21T20:56:49.366Z,18.90
2017-05-21T20:59:18.661Z,18.90
2017-05-21T21:01:47.864Z,18.90
2017-05-21T21:04:17.092Z,18.90
2017-05-21T21:06:46.279Z,18.70
2017-05-21T21:09:15.493Z,18.70
2017-05-21T21:11:44.727Z,18.70
2017-05-21T21:14:13.918Z,18.60
2017-05-21T21:16:43.111Z,18.60
2017-05-21T21:19:12.412Z,18.60
2017-05-21T21:21:41.606Z,18.60
2017-05-21T21:24:10.792Z,18.50
2017-05-21T21:26:40.000Z,18.50
2017-05-21T21:29:09.180Z,18.50
2017-05-21T21:31:38.379Z,18.40
2017-05-21T21:34:07.603Z,18.30
2017-05-21T21:36:36.899Z,18.20
2017-05-21T21:39:06.092Z,18.20
2017-05-21T21:41:35.319Z,18.20
2017-05-21T21:44:04.509Z,18.10
2017-05-21T21:46:33.701Z,18.10
2017-05-21T21:49:02.917Z,18.10
2017-05-21T21:51:32.105Z,18.00
2017-05-21T21:54:01.540Z,17.90
2017-05-21T21:56:30.760Z,17.90
2017-05-21T21:58:59.996Z,17.80
2017-05-21T22:01:29.200Z,17.80
2017-05-21T22:03:58.462Z,17.80
2017-05-21T22:06:27.643Z,17.70
2017-05-21T22:08:56.833Z,17.60
2017-05-21T22:11:26.043Z,17.50
2017-05-21T22:13:55.234Z,17.50
2017-05-21T22:16:24.437Z,17.50
2017-05-21T22:18:53.673Z,17.50
2017-05-21T22:21:22.889Z,17.40
2017-05-21T22:23:52.126Z,17.30
2017-05-21T22:26:21.350Z,17.20
2017-05-21T22:28:50.564Z,17.10
2017-05-21T22:31:19.782Z,17.10
2017-05-21T22:33:49.009Z,17.10
2017-05-21T22:36:18.200Z,17.00
2017-05-21T22:38:47.393Z,16.90
2017-05-21T22:41:17.117Z,16.90
2017-05-21T22:43:46.308Z,17.00
2017-05-21T22:46:15.500Z,16.90
2017-05-21T22:48:44.729Z,17.00
2017-05-21T22:51:13.912Z,16.90
2017-05-21T22:53:43.107Z,16.90
2017-05-21T22:56:12.334Z,16.80
2017-05-21T22:58:41.537Z,16.80
2017-05-21T23:01:10.728Z,16.80
2017-05-21T23:03:39.930Z,16.70
2017-05-21T23:06:09.114Z,16.70
2017-05-21T23:08:38.310Z,16.70
2017-05-21T23:11:07.534Z,16.70
2017-05-21T23:13:36.704Z,16.70
2017-05-21T23:16:05.892Z,16.70
2017-05-21T23:18:35.138Z,16.80
2017-05-21T23:21:04.331Z,16.80
2017-05-21T23:23:34.221Z,16.70
2017-05-21T23:26:03.440Z,16.60
2017-05-21T23:28:32.640Z,16.60
2017-05-21T23:31:02.061Z,16.60
2017-05-21T23:33:31.280Z,16.60
2017-05-21T23:36:00.481Z,16.60
2017-05-21T23:38:29.706Z,16.60
2017-05-21T23:40:58.889Z,16.60
2017-05-21T23:43:28.075Z,16.60
2017-05-21T23:45:57.301Z,16.50
2017-05-21T23:48:26.500Z,16.50
2017-05-21T23:50:55.732Z,16.50
2017-05-21T23:53:24.952Z,16.40
2017-05-21T23:55:54.139Z,16.20
2017-05-21T23:58:23.336Z,16.20
